sensor_id;sensor_type;location;lat;lon;timestamp;P1;durP1;ratioP1;P2;durP2;ratioP2
58240;SDS011;45058;55.772;38.224;2024-03-23T00:54:56;80.67;;;40.30;;
58240;SDS011;45058;55.772;38.224;2024-03-23T00:57:22;74.17;;;40.53;;
58240;SDS011;45058;55.772;38.224;2024-03-23T00:59:48;72.33;;;38.17;;
58240;SDS011;45058;55.772;38.224;2024-03-23T01:02:14;75.33;;;40.37;;
58240;SDS011;45058;55.772;38.224;2024-03-23T01:04:39;69.47;;;38.17;;
58240;SDS011;45058;55.772;38.224;2024-03-23T01:07:05;72.30;;;37.80;;
58240;SDS011;45058;55.772;38.224;2024-03-23T01:09:31;75.97;;;38.50;;
58240;SDS011;45058;55.772;38.224;2024-03-23T01:11:57;67.33;;;36.93;;
58240;SDS011;45058;55.772;38.224;2024-03-23T01:14:23;68.60;;;37.63;;
58240;SDS011;45058;55.772;38.224;2024-03-23T01:16:49;75.30;;;40.20;;
58240;SDS011;45058;55.772;38.224;2024-03-23T01:19:15;71.60;;;39.60;;
58240;SDS011;45058;55.772;38.224;2024-03-23T01:21:42;75.97;;;38.33;;
58240;SDS011;45058;55.772;38.224;2024-03-23T01:24:09;66.80;;;37.90;;
58240;SDS011;45058;55.772;38.224;2024-03-23T01:26:36;71.80;;;39.20;;
58240;SDS011;45058;55.772;38.224;2024-03-23T01:29:03;69.57;;;39.00;;
58240;SDS011;45058;55.772;38.224;2024-03-23T01:31:29;70.23;;;38.33;;
58240;SDS011;45058;55.772;38.224;2024-03-23T01:33:55;75.70;;;38.93;;
58240;SDS011;45058;55.772;38.224;2024-03-23T01:36:21;75.07;;;38.33;;
58240;SDS011;45058;55.772;38.224;2024-03-23T01:38:47;66.27;;;37.70;;
58240;SDS011;45058;55.772;38.224;2024-03-23T01:41:13;66.87;;;36.80;;
58240;SDS011;45058;55.772;38.224;2024-03-23T01:43:39;68.47;;;36.30;;
58240;SDS011;45058;55.772;38.224;2024-03-23T01:46:06;67.80;;;37.07;;
58240;SDS011;45058;55.772;38.224;2024-03-23T01:48:32;69.63;;;37.87;;
58240;SDS011;45058;55.772;38.224;2024-03-23T01:50:59;71.27;;;37.07;;
58240;SDS011;45058;55.772;38.224;2024-03-23T01:53:25;66.53;;;36.50;;
58240;SDS011;45058;55.772;38.224;2024-03-23T01:55:51;66.40;;;37.77;;
58240;SDS011;45058;55.772;38.224;2024-03-23T01:58:17;68.10;;;38.50;;
58240;SDS011;45058;55.772;38.224;2024-03-23T02:00:43;65.67;;;37.30;;
58240;SDS011;45058;55.772;38.224;2024-03-23T02:03:24;65.50;;;37.87;;
58240;SDS011;45058;55.772;38.224;2024-03-23T02:05:50;74.60;;;37.77;;
58240;SDS011;45058;55.772;38.224;2024-03-23T02:08:17;65.90;;;36.77;;
58240;SDS011;45058;55.772;38.224;2024-03-23T02:10:44;62.07;;;36.40;;
58240;SDS011;45058;55.772;38.224;2024-03-23T02:13:10;72.23;;;37.87;;
58240;SDS011;45058;55.772;38.224;2024-03-23T02:15:38;71.70;;;37.70;;
58240;SDS011;45058;55.772;38.224;2024-03-23T02:18:24;68.90;;;35.93;;
58240;SDS011;45058;55.772;38.224;2024-03-23T02:20:50;67.97;;;37.60;;
58240;SDS011;45058;55.772;38.224;2024-03-23T02:23:17;65.17;;;36.43;;
58240;SDS011;45058;55.772;38.224;2024-03-23T02:25:46;63.83;;;36.33;;
58240;SDS011;45058;55.772;38.224;2024-03-23T02:28:12;68.83;;;37.20;;
58240;SDS011;45058;55.772;38.224;2024-03-23T02:30:44;65.63;;;36.63;;
58240;SDS011;45058;55.772;38.224;2024-03-23T02:33:10;66.60;;;37.10;;
58240;SDS011;45058;55.772;38.224;2024-03-23T02:35:36;68.67;;;37.17;;
58240;SDS011;45058;55.772;38.224;2024-03-23T02:38:02;70.97;;;37.03;;
58240;SDS011;45058;55.772;38.224;2024-03-23T02:40:28;76.13;;;39.23;;
58240;SDS011;45058;55.772;38.224;2024-03-23T02:42:55;73.50;;;36.33;;
58240;SDS011;45058;55.772;38.224;2024-03-23T02:45:21;66.87;;;36.50;;
58240;SDS011;45058;55.772;38.224;2024-03-23T02:47:47;65.87;;;36.77;;
58240;SDS011;45058;55.772;38.224;2024-03-23T02:50:20;66.63;;;36.63;;
58240;SDS011;45058;55.772;38.224;2024-03-23T02:52:46;65.43;;;36.93;;
58240;SDS011;45058;55.772;38.224;2024-03-23T02:55:13;71.10;;;36.97;;
58240;SDS011;45058;55.772;38.224;2024-03-23T02:57:40;63.83;;;35.97;;
58240;SDS011;45058;55.772;38.224;2024-03-23T03:00:06;64.33;;;36.10;;
58240;SDS011;45058;55.772;38.224;2024-03-23T03:02:33;63.37;;;35.50;;
58240;SDS011;45058;55.772;38.224;2024-03-23T03:04:59;64.57;;;35.17;;
58240;SDS011;45058;55.772;38.224;2024-03-23T03:07:25;67.37;;;35.63;;
58240;SDS011;45058;55.772;38.224;2024-03-23T03:09:51;69.17;;;36.43;;
58240;SDS011;45058;55.772;38.224;2024-03-23T03:12:17;66.70;;;35.83;;
58240;SDS011;45058;55.772;38.224;2024-03-23T03:14:43;61.33;;;34.37;;
58240;SDS011;45058;55.772;38.224;2024-03-23T03:17:09;66.60;;;34.97;;
58240;SDS011;45058;55.772;38.224;2024-03-23T03:19:35;60.93;;;34.77;;
58240;SDS011;45058;55.772;38.224;2024-03-23T03:22:01;63.47;;;34.00;;
58240;SDS011;45058;55.772;38.224;2024-03-23T03:24:29;61.83;;;34.60;;
58240;SDS011;45058;55.772;38.224;2024-03-23T03:26:55;64.47;;;34.60;;
58240;SDS011;45058;55.772;38.224;2024-03-23T03:29:23;63.13;;;34.60;;
58240;SDS011;45058;55.772;38.224;2024-03-23T03:31:49;68.83;;;35.93;;
58240;SDS011;45058;55.772;38.224;2024-03-23T03:34:15;62.47;;;34.47;;
58240;SDS011;45058;55.772;38.224;2024-03-23T03:36:41;63.57;;;34.40;;
58240;SDS011;45058;55.772;38.224;2024-03-23T03:39:08;58.90;;;32.73;;
58240;SDS011;45058;55.772;38.224;2024-03-23T03:41:34;63.47;;;34.30;;
58240;SDS011;45058;55.772;38.224;2024-03-23T03:44:00;64.40;;;34.67;;
58240;SDS011;45058;55.772;38.224;2024-03-23T03:46:28;59.07;;;32.90;;
58240;SDS011;45058;55.772;38.224;2024-03-23T03:48:54;66.23;;;35.47;;
58240;SDS011;45058;55.772;38.224;2024-03-23T03:51:20;64.40;;;34.00;;
58240;SDS011;45058;55.772;38.224;2024-03-23T03:53:47;66.20;;;33.00;;
58240;SDS011;45058;55.772;38.224;2024-03-23T03:56:13;57.23;;;33.27;;
58240;SDS011;45058;55.772;38.224;2024-03-23T03:58:39;62.23;;;34.60;;
58240;SDS011;45058;55.772;38.224;2024-03-23T04:01:08;59.37;;;32.60;;
58240;SDS011;45058;55.772;38.224;2024-03-23T04:03:34;68.03;;;34.47;;
58240;SDS011;45058;55.772;38.224;2024-03-23T04:06:00;61.03;;;33.60;;
58240;SDS011;45058;55.772;38.224;2024-03-23T04:08:26;66.17;;;36.07;;
58240;SDS011;45058;55.772;38.224;2024-03-23T04:10:52;58.67;;;32.87;;
58240;SDS011;45058;55.772;38.224;2024-03-23T04:13:18;62.20;;;35.20;;
58240;SDS011;45058;55.772;38.224;2024-03-23T04:15:44;61.67;;;33.33;;
58240;SDS011;45058;55.772;38.224;2024-03-23T04:18:10;61.13;;;32.30;;
58240;SDS011;45058;55.772;38.224;2024-03-23T04:20:36;58.27;;;32.87;;
58240;SDS011;45058;55.772;38.224;2024-03-23T04:23:02;60.93;;;33.03;;
58240;SDS011;45058;55.772;38.224;2024-03-23T04:25:29;53.63;;;30.97;;
58240;SDS011;45058;55.772;38.224;2024-03-23T04:27:54;58.33;;;31.60;;
58240;SDS011;45058;55.772;38.224;2024-03-23T04:30:21;54.87;;;31.03;;
58240;SDS011;45058;55.772;38.224;2024-03-23T04:32:48;58.93;;;30.97;;
58240;SDS011;45058;55.772;38.224;2024-03-23T04:35:15;57.93;;;29.97;;
58240;SDS011;45058;55.772;38.224;2024-03-23T04:37:41;53.67;;;30.00;;
58240;SDS011;45058;55.772;38.224;2024-03-23T04:40:07;54.07;;;29.20;;
58240;SDS011;45058;55.772;38.224;2024-03-23T04:42:34;49.63;;;28.43;;
58240;SDS011;45058;55.772;38.224;2024-03-23T04:45:00;51.53;;;29.50;;
58240;SDS011;45058;55.772;38.224;2024-03-23T04:47:26;50.97;;;28.07;;
58240;SDS011;45058;55.772;38.224;2024-03-23T04:49:52;47.67;;;27.10;;
58240;SDS011;45058;55.772;38.224;2024-03-23T04:52:19;47.80;;;27.50;;
58240;SDS011;45058;55.772;38.224;2024-03-23T04:54:45;49.33;;;27.27;;
58240;SDS011;45058;55.772;38.224;2024-03-23T04:57:11;46.70;;;26.27;;
58240;SDS011;45058;55.772;38.224;2024-03-23T04:59:37;47.87;;;26.80;;
58240;SDS011;45058;55.772;38.224;2024-03-23T05:02:03;45.50;;;24.87;;
58240;SDS011;45058;55.772;38.224;2024-03-23T05:04:29;50.00;;;25.67;;
58240;SDS011;45058;55.772;38.224;2024-03-23T05:06:55;43.80;;;25.03;;
58240;SDS011;45058;55.772;38.224;2024-03-23T05:09:21;42.23;;;24.07;;
58240;SDS011;45058;55.772;38.224;2024-03-23T05:11:47;45.13;;;24.60;;
58240;SDS011;45058;55.772;38.224;2024-03-23T05:14:13;42.13;;;23.20;;
58240;SDS011;45058;55.772;38.224;2024-03-23T05:16:40;41.77;;;24.60;;
58240;SDS011;45058;55.772;38.224;2024-03-23T05:19:06;42.30;;;23.97;;
58240;SDS011;45058;55.772;38.224;2024-03-23T05:21:32;43.40;;;23.63;;
58240;SDS011;45058;55.772;38.224;2024-03-23T05:23:58;36.77;;;22.83;;
58240;SDS011;45058;55.772;38.224;2024-03-23T05:26:24;40.17;;;22.97;;
58240;SDS011;45058;55.772;38.224;2024-03-23T05:28:50;38.17;;;23.10;;
58240;SDS011;45058;55.772;38.224;2024-03-23T05:31:26;38.20;;;22.93;;
58240;SDS011;45058;55.772;38.224;2024-03-23T05:33:53;36.97;;;22.70;;
58240;SDS011;45058;55.772;38.224;2024-03-23T05:36:21;39.23;;;23.13;;
58240;SDS011;45058;55.772;38.224;2024-03-23T05:38:47;35.43;;;22.57;;
58240;SDS011;45058;55.772;38.224;2024-03-23T05:41:13;43.30;;;21.80;;
58240;SDS011;45058;55.772;38.224;2024-03-23T05:43:40;39.87;;;22.63;;
58240;SDS011;45058;55.772;38.224;2024-03-23T05:46:06;39.53;;;23.27;;
58240;SDS011;45058;55.772;38.224;2024-03-23T05:48:33;40.03;;;22.70;;
58240;SDS011;45058;55.772;38.224;2024-03-23T05:50:59;34.70;;;23.23;;
58240;SDS011;45058;55.772;38.224;2024-03-23T05:53:25;38.67;;;23.47;;
58240;SDS011;45058;55.772;38.224;2024-03-23T05:55:59;38.47;;;21.87;;
58240;SDS011;45058;55.772;38.224;2024-03-23T05:58:26;37.08;;;23.70;;
58240;SDS011;45058;55.772;38.224;2024-03-23T06:00:59;36.10;;;21.90;;
58240;SDS011;45058;55.772;38.224;2024-03-23T06:03:28;36.00;;;23.33;;
58240;SDS011;45058;55.772;38.224;2024-03-23T06:05:55;37.67;;;23.57;;
58240;SDS011;45058;55.772;38.224;2024-03-23T06:08:22;41.13;;;23.83;;
58240;SDS011;45058;55.772;38.224;2024-03-23T06:10:50;40.67;;;23.70;;
58240;SDS011;45058;55.772;38.224;2024-03-23T06:13:17;42.93;;;24.47;;
58240;SDS011;45058;55.772;38.224;2024-03-23T06:15:43;37.00;;;21.57;;
58240;SDS011;45058;55.772;38.224;2024-03-23T06:18:11;39.57;;;23.87;;
58240;SDS011;45058;55.772;38.224;2024-03-23T06:20:38;42.57;;;24.23;;
58240;SDS011;45058;55.772;38.224;2024-03-23T06:23:04;35.97;;;23.40;;
58240;SDS011;45058;55.772;38.224;2024-03-23T06:25:30;41.37;;;24.03;;
58240;SDS011;45058;55.772;38.224;2024-03-23T06:27:57;42.23;;;24.77;;
58240;SDS011;45058;55.772;38.224;2024-03-23T06:30:24;37.20;;;21.80;;
58240;SDS011;45058;55.772;38.224;2024-03-23T06:32:52;35.93;;;24.87;;
58240;SDS011;45058;55.772;38.224;2024-03-23T06:35:19;42.27;;;24.03;;
58240;SDS011;45058;55.772;38.224;2024-03-23T06:37:45;38.63;;;23.27;;
58240;SDS011;45058;55.772;38.224;2024-03-23T06:40:11;39.87;;;25.57;;
58240;SDS011;45058;55.772;38.224;2024-03-23T06:42:37;38.47;;;23.30;;
58240;SDS011;45058;55.772;38.224;2024-03-23T06:45:04;42.30;;;25.03;;
58240;SDS011;45058;55.772;38.224;2024-03-23T06:47:33;42.93;;;25.87;;
58240;SDS011;45058;55.772;38.224;2024-03-23T06:49:59;38.67;;;24.23;;
58240;SDS011;45058;55.772;38.224;2024-03-23T06:52:32;39.83;;;25.33;;
58240;SDS011;45058;55.772;38.224;2024-03-23T06:54:58;44.03;;;25.47;;
58240;SDS011;45058;55.772;38.224;2024-03-23T06:57:24;46.57;;;27.10;;
58240;SDS011;45058;55.772;38.224;2024-03-23T06:59:51;42.73;;;24.30;;
58240;SDS011;45058;55.772;38.224;2024-03-23T07:02:17;36.43;;;23.77;;
58240;SDS011;45058;55.772;38.224;2024-03-23T07:04:43;37.43;;;24.43;;
58240;SDS011;45058;55.772;38.224;2024-03-23T07:07:09;42.03;;;24.53;;
58240;SDS011;45058;55.772;38.224;2024-03-23T07:09:35;42.03;;;26.20;;
58240;SDS011;45058;55.772;38.224;2024-03-23T07:12:03;36.70;;;25.13;;
58240;SDS011;45058;55.772;38.224;2024-03-23T07:14:30;38.90;;;24.40;;
58240;SDS011;45058;55.772;38.224;2024-03-23T07:16:56;39.60;;;25.97;;
58240;SDS011;45058;55.772;38.224;2024-03-23T07:19:22;38.83;;;25.87;;
58240;SDS011;45058;55.772;38.224;2024-03-23T07:21:51;36.87;;;23.63;;
58240;SDS011;45058;55.772;38.224;2024-03-23T07:24:17;41.03;;;24.27;;
58240;SDS011;45058;55.772;38.224;2024-03-23T07:26:43;38.23;;;22.30;;
58240;SDS011;45058;55.772;38.224;2024-03-23T07:29:09;37.33;;;23.57;;
58240;SDS011;45058;55.772;38.224;2024-03-23T07:31:35;34.67;;;22.63;;
58240;SDS011;45058;55.772;38.224;2024-03-23T07:34:02;33.57;;;23.17;;
58240;SDS011;45058;55.772;38.224;2024-03-23T07:36:28;32.87;;;22.43;;
58240;SDS011;45058;55.772;38.224;2024-03-23T07:38:54;34.77;;;23.67;;
58240;SDS011;45058;55.772;38.224;2024-03-23T07:41:20;33.33;;;22.27;;
58240;SDS011;45058;55.772;38.224;2024-03-23T07:43:47;30.77;;;21.03;;
58240;SDS011;45058;55.772;38.224;2024-03-23T07:46:14;33.90;;;23.10;;
58240;SDS011;45058;55.772;38.224;2024-03-23T07:48:41;33.97;;;21.70;;
58240;SDS011;45058;55.772;38.224;2024-03-23T07:51:09;30.57;;;20.37;;
58240;SDS011;45058;55.772;38.224;2024-03-23T07:53:37;30.70;;;21.57;;
58240;SDS011;45058;55.772;38.224;2024-03-23T07:58:30;30.40;;;21.33;;
58240;SDS011;45058;55.772;38.224;2024-03-23T08:01:11;31.47;;;20.40;;
58240;SDS011;45058;55.772;38.224;2024-03-23T08:03:51;31.20;;;21.00;;
58240;SDS011;45058;55.772;38.224;2024-03-23T08:06:28;30.13;;;20.85;;
58240;SDS011;45058;55.772;38.224;2024-03-23T08:09:08;31.03;;;20.30;;
58240;SDS011;45058;55.772;38.224;2024-03-23T08:11:44;32.63;;;20.33;;
58240;SDS011;45058;55.772;38.224;2024-03-23T08:14:25;28.47;;;19.70;;
58240;SDS011;45058;55.772;38.224;2024-03-23T08:17:02;30.73;;;21.03;;
58240;SDS011;45058;55.772;38.224;2024-03-23T08:19:28;30.37;;;20.43;;
58240;SDS011;45058;55.772;38.224;2024-03-23T08:21:54;28.97;;;20.77;;
58240;SDS011;45058;55.772;38.224;2024-03-23T08:24:20;32.30;;;21.07;;
58240;SDS011;45058;55.772;38.224;2024-03-23T08:26:47;29.13;;;20.40;;
58240;SDS011;45058;55.772;38.224;2024-03-23T08:29:13;33.33;;;21.37;;
58240;SDS011;45058;55.772;38.224;2024-03-23T08:31:39;28.70;;;19.20;;
58240;SDS011;45058;55.772;38.224;2024-03-23T08:34:05;32.83;;;21.17;;
58240;SDS011;45058;55.772;38.224;2024-03-23T08:36:31;29.97;;;19.83;;
58240;SDS011;45058;55.772;38.224;2024-03-23T08:38:57;26.93;;;20.27;;
58240;SDS011;45058;55.772;38.224;2024-03-23T08:41:24;25.67;;;19.90;;
58240;SDS011;45058;55.772;38.224;2024-03-23T08:43:50;28.83;;;19.80;;
58240;SDS011;45058;55.772;38.224;2024-03-23T08:46:17;28.07;;;20.23;;
58240;SDS011;45058;55.772;38.224;2024-03-23T08:48:46;31.80;;;19.73;;
58240;SDS011;45058;55.772;38.224;2024-03-23T08:51:15;26.40;;;18.83;;
58240;SDS011;45058;55.772;38.224;2024-03-23T08:53:42;30.27;;;20.83;;
58240;SDS011;45058;55.772;38.224;2024-03-23T08:56:09;30.30;;;20.23;;
58240;SDS011;45058;55.772;38.224;2024-03-23T08:58:36;29.47;;;20.30;;
58240;SDS011;45058;55.772;38.224;2024-03-23T09:01:04;25.67;;;18.37;;
58240;SDS011;45058;55.772;38.224;2024-03-23T09:03:34;31.00;;;18.97;;
58240;SDS011;45058;55.772;38.224;2024-03-23T09:06:02;27.07;;;18.47;;
58240;SDS011;45058;55.772;38.224;2024-03-23T09:08:32;27.27;;;18.23;;
58240;SDS011;45058;55.772;38.224;2024-03-23T09:11:03;27.70;;;17.77;;
58240;SDS011;45058;55.772;38.224;2024-03-23T09:13:33;26.33;;;18.60;;
58240;SDS011;45058;55.772;38.224;2024-03-23T09:15:59;27.77;;;19.97;;
58240;SDS011;45058;55.772;38.224;2024-03-23T09:18:25;28.03;;;18.67;;
58240;SDS011;45058;55.772;38.224;2024-03-23T09:20:52;26.77;;;19.53;;
58240;SDS011;45058;55.772;38.224;2024-03-23T09:23:20;28.13;;;19.63;;
58240;SDS011;45058;55.772;38.224;2024-03-23T09:25:47;25.33;;;18.43;;
58240;SDS011;45058;55.772;38.224;2024-03-23T09:28:13;25.90;;;17.83;;
58240;SDS011;45058;55.772;38.224;2024-03-23T09:30:40;28.07;;;18.07;;
58240;SDS011;45058;55.772;38.224;2024-03-23T09:33:13;24.37;;;17.77;;
58240;SDS011;45058;55.772;38.224;2024-03-23T09:35:40;23.80;;;17.03;;
58240;SDS011;45058;55.772;38.224;2024-03-23T09:38:07;28.33;;;17.40;;
58240;SDS011;45058;55.772;38.224;2024-03-23T09:40:41;21.37;;;16.53;;
58240;SDS011;45058;55.772;38.224;2024-03-23T09:43:08;23.77;;;17.53;;
58240;SDS011;45058;55.772;38.224;2024-03-23T09:45:39;22.93;;;16.20;;
58240;SDS011;45058;55.772;38.224;2024-03-23T09:48:09;22.37;;;16.43;;
58240;SDS011;45058;55.772;38.224;2024-03-23T09:53:07;24.67;;;16.73;;
58240;SDS011;45058;55.772;38.224;2024-03-23T09:55:38;22.63;;;15.40;;
58240;SDS011;45058;55.772;38.224;2024-03-23T09:58:05;24.67;;;17.27;;
58240;SDS011;45058;55.772;38.224;2024-03-23T10:00:32;19.63;;;14.57;;
58240;SDS011;45058;55.772;38.224;2024-03-23T10:02:59;20.42;;;14.68;;
58240;SDS011;45058;55.772;38.224;2024-03-23T10:05:29;18.40;;;13.30;;
58240;SDS011;45058;55.772;38.224;2024-03-23T10:11:15;23.07;;;14.37;;
58240;SDS011;45058;55.772;38.224;2024-03-23T10:13:47;25.08;;;14.07;;
58240;SDS011;45058;55.772;38.224;2024-03-23T10:16:22;20.02;;;14.48;;
58240;SDS011;45058;55.772;38.224;2024-03-23T10:18:56;23.98;;;14.73;;
58240;SDS011;45058;55.772;38.224;2024-03-23T10:21:28;19.90;;;13.77;;
58240;SDS011;45058;55.772;38.224;2024-03-23T10:24:07;22.27;;;14.40;;
58240;SDS011;45058;55.772;38.224;2024-03-23T10:26:42;19.60;;;14.27;;
58240;SDS011;45058;55.772;38.224;2024-03-23T10:29:16;24.57;;;15.30;;
58240;SDS011;45058;55.772;38.224;2024-03-23T10:31:46;22.50;;;15.13;;
58240;SDS011;45058;55.772;38.224;2024-03-23T10:34:25;22.60;;;16.60;;
58240;SDS011;45058;55.772;38.224;2024-03-23T10:36:57;21.48;;;16.25;;
58240;SDS011;45058;55.772;38.224;2024-03-23T10:39:34;20.95;;;14.02;;
58240;SDS011;45058;55.772;38.224;2024-03-23T10:42:09;22.10;;;14.80;;
58240;SDS011;45058;55.772;38.224;2024-03-23T10:44:39;20.67;;;14.85;;
58240;SDS011;45058;55.772;38.224;2024-03-23T10:47:07;23.50;;;15.03;;
58240;SDS011;45058;55.772;38.224;2024-03-23T10:49:39;20.10;;;14.30;;
58240;SDS011;45058;55.772;38.224;2024-03-23T10:52:08;19.83;;;15.33;;
58240;SDS011;45058;55.772;38.224;2024-03-23T10:54:47;21.20;;;15.50;;
58240;SDS011;45058;55.772;38.224;2024-03-23T10:57:21;18.30;;;14.70;;
58240;SDS011;45058;55.772;38.224;2024-03-23T10:59:54;19.90;;;14.52;;
58240;SDS011;45058;55.772;38.224;2024-03-23T11:02:25;22.38;;;15.82;;
58240;SDS011;45058;55.772;38.224;2024-03-23T11:04:57;20.30;;;15.10;;
58240;SDS011;45058;55.772;38.224;2024-03-23T11:07:29;22.63;;;16.17;;
58240;SDS011;45058;55.772;38.224;2024-03-23T11:10:03;22.17;;;16.23;;
58240;SDS011;45058;55.772;38.224;2024-03-23T11:15:49;24.07;;;16.70;;
58240;SDS011;45058;55.772;38.224;2024-03-23T11:18:22;20.42;;;15.23;;
58240;SDS011;45058;55.772;38.224;2024-03-23T11:20:55;21.47;;;16.07;;
58240;SDS011;45058;55.772;38.224;2024-03-23T11:23:27;25.27;;;15.63;;
58240;SDS011;45058;55.772;38.224;2024-03-23T11:26:06;21.03;;;15.57;;
58240;SDS011;45058;55.772;38.224;2024-03-23T11:28:38;25.75;;;16.48;;
58240;SDS011;45058;55.772;38.224;2024-03-23T11:31:10;22.97;;;15.83;;
58240;SDS011;45058;55.772;38.224;2024-03-23T11:33:41;25.30;;;16.87;;
58240;SDS011;45058;55.772;38.224;2024-03-23T11:36:10;23.63;;;16.35;;
58240;SDS011;45058;55.772;38.224;2024-03-23T11:38:38;24.80;;;17.13;;
58240;SDS011;45058;55.772;38.224;2024-03-23T11:41:07;23.67;;;17.57;;
58240;SDS011;45058;55.772;38.224;2024-03-23T11:43:40;21.33;;;15.90;;
58240;SDS011;45058;55.772;38.224;2024-03-23T11:46:10;24.17;;;16.27;;
58240;SDS011;45058;55.772;38.224;2024-03-23T11:48:41;30.38;;;15.48;;
58240;SDS011;45058;55.772;38.224;2024-03-23T11:51:18;25.57;;;16.50;;
58240;SDS011;45058;55.772;38.224;2024-03-23T11:53:51;23.77;;;15.57;;
58240;SDS011;45058;55.772;38.224;2024-03-23T11:56:20;23.00;;;16.27;;
58240;SDS011;45058;55.772;38.224;2024-03-23T11:59:00;23.85;;;16.52;;
58240;SDS011;45058;55.772;38.224;2024-03-23T12:01:37;24.20;;;17.30;;
58240;SDS011;45058;55.772;38.224;2024-03-23T12:04:24;25.13;;;16.93;;
58240;SDS011;45058;55.772;38.224;2024-03-23T12:07:15;21.25;;;16.70;;
58240;SDS011;45058;55.772;38.224;2024-03-23T12:09:49;22.20;;;16.93;;
58240;SDS011;45058;55.772;38.224;2024-03-23T12:12:35;23.75;;;17.80;;
58240;SDS011;45058;55.772;38.224;2024-03-23T12:15:08;24.38;;;17.50;;
58240;SDS011;45058;55.772;38.224;2024-03-23T12:17:44;30.37;;;18.73;;
58240;SDS011;45058;55.772;38.224;2024-03-23T12:20:18;18.90;;;13.33;;
58240;SDS011;45058;55.772;38.224;2024-03-23T12:22:51;25.37;;;16.93;;
58240;SDS011;45058;55.772;38.224;2024-03-23T12:25:19;30.67;;;17.30;;
58240;SDS011;45058;55.772;38.224;2024-03-23T12:27:50;27.23;;;18.20;;
58240;SDS011;45058;55.772;38.224;2024-03-23T12:30:23;29.57;;;17.00;;
58240;SDS011;45058;55.772;38.224;2024-03-23T12:32:54;27.10;;;17.63;;
58240;SDS011;45058;55.772;38.224;2024-03-23T12:35:22;24.37;;;16.73;;
58240;SDS011;45058;55.772;38.224;2024-03-23T12:37:59;26.95;;;17.60;;
58240;SDS011;45058;55.772;38.224;2024-03-23T12:40:29;27.67;;;17.20;;
58240;SDS011;45058;55.772;38.224;2024-03-23T12:43:00;25.60;;;17.85;;
58240;SDS011;45058;55.772;38.224;2024-03-23T12:45:30;30.17;;;17.43;;
58240;SDS011;45058;55.772;38.224;2024-03-23T12:47:58;26.65;;;17.80;;
58240;SDS011;45058;55.772;38.224;2024-03-23T12:50:28;28.23;;;19.00;;
58240;SDS011;45058;55.772;38.224;2024-03-23T12:53:08;30.40;;;19.80;;
58240;SDS011;45058;55.772;38.224;2024-03-23T12:55:43;29.45;;;20.40;;
58240;SDS011;45058;55.772;38.224;2024-03-23T12:58:11;32.30;;;21.63;;
58240;SDS011;45058;55.772;38.224;2024-03-23T13:00:44;30.63;;;20.90;;
58240;SDS011;45058;55.772;38.224;2024-03-23T13:03:14;33.03;;;20.87;;
58240;SDS011;45058;55.772;38.224;2024-03-23T13:05:43;33.03;;;20.57;;
58240;SDS011;45058;55.772;38.224;2024-03-23T13:08:16;32.87;;;21.67;;
58240;SDS011;45058;55.772;38.224;2024-03-23T13:10:44;34.23;;;22.87;;
58240;SDS011;45058;55.772;38.224;2024-03-23T13:13:19;32.60;;;22.20;;
58240;SDS011;45058;55.772;38.224;2024-03-23T13:15:51;34.53;;;22.57;;
58240;SDS011;45058;55.772;38.224;2024-03-23T13:18:20;35.63;;;23.27;;
58240;SDS011;45058;55.772;38.224;2024-03-23T13:20:54;34.30;;;22.33;;
58240;SDS011;45058;55.772;38.224;2024-03-23T13:23:23;39.65;;;24.92;;
58240;SDS011;45058;55.772;38.224;2024-03-23T13:25:56;35.87;;;23.27;;
58240;SDS011;45058;55.772;38.224;2024-03-23T13:28:28;34.07;;;21.23;;
58240;SDS011;45058;55.772;38.224;2024-03-23T13:31:01;33.93;;;22.40;;
58240;SDS011;45058;55.772;38.224;2024-03-23T13:33:31;35.27;;;22.30;;
58240;SDS011;45058;55.772;38.224;2024-03-23T13:36:00;36.07;;;23.10;;
58240;SDS011;45058;55.772;38.224;2024-03-23T13:38:35;36.47;;;22.92;;
58240;SDS011;45058;55.772;38.224;2024-03-23T13:41:10;41.80;;;25.27;;
58240;SDS011;45058;55.772;38.224;2024-03-23T13:43:45;35.33;;;23.40;;
58240;SDS011;45058;55.772;38.224;2024-03-23T13:46:15;39.67;;;24.57;;
58240;SDS011;45058;55.772;38.224;2024-03-23T13:48:46;41.57;;;25.57;;
58240;SDS011;45058;55.772;38.224;2024-03-23T13:51:14;38.67;;;24.10;;
58240;SDS011;45058;55.772;38.224;2024-03-23T13:53:44;42.33;;;25.23;;
58240;SDS011;45058;55.772;38.224;2024-03-23T13:59:40;38.40;;;24.77;;
58240;SDS011;45058;55.772;38.224;2024-03-23T14:02:09;40.17;;;23.43;;
58240;SDS011;45058;55.772;38.224;2024-03-23T14:04:38;38.53;;;23.73;;
58240;SDS011;45058;55.772;38.224;2024-03-23T14:07:07;42.27;;;24.57;;
58240;SDS011;45058;55.772;38.224;2024-03-23T14:09:35;35.70;;;23.40;;
58240;SDS011;45058;55.772;38.224;2024-03-23T14:12:05;34.80;;;22.57;;
58240;SDS011;45058;55.772;38.224;2024-03-23T14:14:36;36.83;;;24.13;;
58240;SDS011;45058;55.772;38.224;2024-03-23T14:17:06;39.50;;;22.77;;
58240;SDS011;45058;55.772;38.224;2024-03-23T14:19:38;34.27;;;22.63;;
58240;SDS011;45058;55.772;38.224;2024-03-23T14:22:12;34.40;;;22.50;;
58240;SDS011;45058;55.772;38.224;2024-03-23T14:24:43;37.13;;;23.30;;
58240;SDS011;45058;55.772;38.224;2024-03-23T14:27:22;36.23;;;22.47;;
58240;SDS011;45058;55.772;38.224;2024-03-23T14:29:51;38.20;;;23.83;;
58240;SDS011;45058;55.772;38.224;2024-03-23T14:32:21;35.13;;;22.47;;
58240;SDS011;45058;55.772;38.224;2024-03-23T14:34:51;35.30;;;23.57;;
58240;SDS011;45058;55.772;38.224;2024-03-23T14:37:24;36.83;;;22.90;;
58240;SDS011;45058;55.772;38.224;2024-03-23T14:39:56;38.00;;;24.63;;
58240;SDS011;45058;55.772;38.224;2024-03-23T14:42:27;38.17;;;23.60;;
58240;SDS011;45058;55.772;38.224;2024-03-23T14:45:00;37.93;;;24.23;;
58240;SDS011;45058;55.772;38.224;2024-03-23T14:47:33;38.80;;;24.57;;
58240;SDS011;45058;55.772;38.224;2024-03-23T14:50:07;39.07;;;25.27;;
58240;SDS011;45058;55.772;38.224;2024-03-23T14:52:44;35.03;;;24.33;;
58240;SDS011;45058;55.772;38.224;2024-03-23T14:55:12;34.83;;;24.00;;
58240;SDS011;45058;55.772;38.224;2024-03-23T14:57:52;40.27;;;24.40;;
58240;SDS011;45058;55.772;38.224;2024-03-23T15:00:26;38.73;;;25.60;;
58240;SDS011;45058;55.772;38.224;2024-03-23T15:02:58;38.77;;;25.33;;
58240;SDS011;45058;55.772;38.224;2024-03-23T15:05:27;39.70;;;26.17;;
58240;SDS011;45058;55.772;38.224;2024-03-23T15:07:55;39.73;;;24.63;;
58240;SDS011;45058;55.772;38.224;2024-03-23T15:10:31;38.30;;;25.13;;
58240;SDS011;45058;55.772;38.224;2024-03-23T15:13:04;46.40;;;24.80;;
58240;SDS011;45058;55.772;38.224;2024-03-23T15:15:37;40.53;;;26.17;;
58240;SDS011;45058;55.772;38.224;2024-03-23T15:18:11;36.57;;;24.37;;
58240;SDS011;45058;55.772;38.224;2024-03-23T15:21:08;40.38;;;26.83;;
58240;SDS011;45058;55.772;38.224;2024-03-23T15:23:41;39.67;;;25.20;;
58240;SDS011;45058;55.772;38.224;2024-03-23T15:26:15;45.10;;;26.60;;
58240;SDS011;45058;55.772;38.224;2024-03-23T15:28:49;39.83;;;25.73;;